sensor_id;sensor_type;location;lat;lon;timestamp;temperature;humidity
35325;DHT22;35135;47.510;19.036;2022-08-19T00:01:50;30.20;42.80
35325;DHT22;35135;47.510;19.036;2022-08-19T00:04:19;30.20;42.90
35325;DHT22;35135;47.510;19.036;2022-08-19T00:06:47;30.20;42.80
35325;DHT22;35135;47.510;19.036;2022-08-19T00:09:15;30.20;42.80
35325;DHT22;35135;47.510;19.036;2022-08-19T00:11:42;30.20;42.90
35325;DHT22;35135;47.510;19.036;2022-08-19T00:14:09;30.20;42.90
35325;DHT22;35135;47.510;19.036;2022-08-19T00:16:38;30.20;42.90
35325;DHT22;35135;47.510;19.036;2022-08-19T00:19:05;30.20;42.90
35325;DHT22;35135;47.510;19.036;2022-08-19T00:21:31;30.20;42.90
35325;DHT22;35135;47.510;19.036;2022-08-19T00:23:57;30.20;42.90
35325;DHT22;35135;47.510;19.036;2022-08-19T00:26:27;30.20;42.90
35325;DHT22;35135;47.510;19.036;2022-08-19T00:28:54;30.20;42.90
35325;DHT22;35135;47.510;19.036;2022-08-19T00:31:21;30.20;42.90
35325;DHT22;35135;47.510;19.036;2022-08-19T00:33:48;30.20;42.90
35325;DHT22;35135;47.510;19.036;2022-08-19T00:36:16;30.20;42.90
35325;DHT22;35135;47.510;19.036;2022-08-19T00:38:44;30.20;42.90
35325;DHT22;35135;47.510;19.036;2022-08-19T00:41:14;30.20;42.90
35325;DHT22;35135;47.510;19.036;2022-08-19T00:43:42;30.20;43.00
35325;DHT22;35135;47.510;19.036;2022-08-19T00:46:10;30.20;43.00
35325;DHT22;35135;47.510;19.036;2022-08-19T00:48:38;30.20;43.00
35325;DHT22;35135;47.510;19.036;2022-08-19T00:51:05;30.20;43.10
35325;DHT22;35135;47.510;19.036;2022-08-19T00:53:33;30.20;43.00
35325;DHT22;35135;47.510;19.036;2022-08-19T00:56:00;30.20;43.10
35325;DHT22;35135;47.510;19.036;2022-08-19T00:58:30;30.20;43.00
35325;DHT22;35135;47.510;19.036;2022-08-19T01:00:59;30.20;43.10
35325;DHT22;35135;47.510;19.036;2022-08-19T01:03:26;30.20;43.00
35325;DHT22;35135;47.510;19.036;2022-08-19T01:05:54;30.20;43.10
35325;DHT22;35135;47.510;19.036;2022-08-19T01:08:22;30.20;43.10
35325;DHT22;35135;47.510;19.036;2022-08-19T01:10:50;30.20;43.10
35325;DHT22;35135;47.510;19.036;2022-08-19T01:13:20;30.20;43.00
35325;DHT22;35135;47.510;19.036;2022-08-19T01:15:49;30.20;43.10
35325;DHT22;35135;47.510;19.036;2022-08-19T01:18:18;30.20;43.10
35325;DHT22;35135;47.510;19.036;2022-08-19T01:20:45;30.20;43.10
35325;DHT22;35135;47.510;19.036;2022-08-19T01:23:12;30.20;43.10
35325;DHT22;35135;47.510;19.036;2022-08-19T01:25:43;30.20;43.10
35325;DHT22;35135;47.510;19.036;2022-08-19T01:28:31;30.20;43.10
35325;DHT22;35135;47.510;19.036;2022-08-19T01:30:57;30.20;43.10
35325;DHT22;35135;47.510;19.036;2022-08-19T01:33:24;30.20;43.10
35325;DHT22;35135;47.510;19.036;2022-08-19T01:35:50;30.10;43.10
35325;DHT22;35135;47.510;19.036;2022-08-19T01:38:26;30.10;43.10
35325;DHT22;35135;47.510;19.036;2022-08-19T01:40:54;30.20;43.20
35325;DHT22;35135;47.510;19.036;2022-08-19T01:43:21;30.10;43.10
35325;DHT22;35135;47.510;19.036;2022-08-19T01:45:52;30.10;43.20
35325;DHT22;35135;47.510;19.036;2022-08-19T01:48:19;30.10;43.10
35325;DHT22;35135;47.510;19.036;2022-08-19T01:50:47;30.10;43.10
35325;DHT22;35135;47.510;19.036;2022-08-19T01:53:14;30.10;43.10
35325;DHT22;35135;47.510;19.036;2022-08-19T01:55:42;30.10;43.20
35325;DHT22;35135;47.510;19.036;2022-08-19T01:58:19;30.10;43.10
35325;DHT22;35135;47.510;19.036;2022-08-19T02:00:47;30.10;43.20
35325;DHT22;35135;47.510;19.036;2022-08-19T02:03:13;30.10;43.20
35325;DHT22;35135;47.510;19.036;2022-08-19T02:05:40;30.10;43.20
35325;DHT22;35135;47.510;19.036;2022-08-19T02:08:08;30.10;43.20
35325;DHT22;35135;47.510;19.036;2022-08-19T02:10:37;30.10;43.20
35325;DHT22;35135;47.510;19.036;2022-08-19T02:13:05;30.10;43.20
35325;DHT22;35135;47.510;19.036;2022-08-19T02:15:32;30.10;43.20
35325;DHT22;35135;47.510;19.036;2022-08-19T02:17:59;30.10;43.20
35325;DHT22;35135;47.510;19.036;2022-08-19T02:20:25;30.10;43.20
35325;DHT22;35135;47.510;19.036;2022-08-19T02:22:52;30.10;43.20
35325;DHT22;35135;47.510;19.036;2022-08-19T02:25:20;30.10;43.30
35325;DHT22;35135;47.510;19.036;2022-08-19T02:27:47;30.10;43.20
35325;DHT22;35135;47.510;19.036;2022-08-19T02:30:14;30.10;43.30
35325;DHT22;35135;47.510;19.036;2022-08-19T02:32:42;30.10;43.30
35325;DHT22;35135;47.510;19.036;2022-08-19T02:35:08;30.10;43.30
35325;DHT22;35135;47.510;19.036;2022-08-19T02:37:36;30.10;43.30
35325;DHT22;35135;47.510;19.036;2022-08-19T02:40:21;30.10;43.30
35325;DHT22;35135;47.510;19.036;2022-08-19T02:42:49;30.10;43.30
35325;DHT22;35135;47.510;19.036;2022-08-19T02:45:18;30.10;43.30
35325;DHT22;35135;47.510;19.036;2022-08-19T02:47:46;30.10;43.30
35325;DHT22;35135;47.510;19.036;2022-08-19T02:50:12;30.10;43.30
35325;DHT22;35135;47.510;19.036;2022-08-19T02:52:40;30.10;43.30
35325;DHT22;35135;47.510;19.036;2022-08-19T02:55:06;30.10;43.40
35325;DHT22;35135;47.510;19.036;2022-08-19T02:57:34;30.10;43.30
35325;DHT22;35135;47.510;19.036;2022-08-19T03:00:06;30.10;43.40
35325;DHT22;35135;47.510;19.036;2022-08-19T03:02:34;30.10;43.40
35325;DHT22;35135;47.510;19.036;2022-08-19T03:05:02;30.10;43.40
35325;DHT22;35135;47.510;19.036;2022-08-19T03:07:29;30.10;43.40
35325;DHT22;35135;47.510;19.036;2022-08-19T03:09:56;30.10;43.40
35325;DHT22;35135;47.510;19.036;2022-08-19T03:12:23;30.10;43.40
35325;DHT22;35135;47.510;19.036;2022-08-19T03:14:50;30.10;43.40
35325;DHT22;35135;47.510;19.036;2022-08-19T03:17:17;30.10;43.40
35325;DHT22;35135;47.510;19.036;2022-08-19T03:19:42;30.10;43.40
35325;DHT22;35135;47.510;19.036;2022-08-19T03:22:08;30.10;43.40
35325;DHT22;35135;47.510;19.036;2022-08-19T03:24:36;30.10;43.50
35325;DHT22;35135;47.510;19.036;2022-08-19T03:27:04;30.00;43.40
35325;DHT22;35135;47.510;19.036;2022-08-19T03:29:32;30.00;43.40
35325;DHT22;35135;47.510;19.036;2022-08-19T03:31:59;30.10;43.40
35325;DHT22;35135;47.510;19.036;2022-08-19T03:34:29;30.00;43.40
35325;DHT22;35135;47.510;19.036;2022-08-19T03:36:57;30.10;43.50
35325;DHT22;35135;47.510;19.036;2022-08-19T03:39:24;30.00;43.40
35325;DHT22;35135;47.510;19.036;2022-08-19T03:41:52;30.00;43.40
35325;DHT22;35135;47.510;19.036;2022-08-19T03:44:23;30.00;43.40
35325;DHT22;35135;47.510;19.036;2022-08-19T03:46:57;30.10;43.50
35325;DHT22;35135;47.510;19.036;2022-08-19T03:49:26;30.10;43.50
35325;DHT22;35135;47.510;19.036;2022-08-19T03:51:54;30.00;43.40
35325;DHT22;35135;47.510;19.036;2022-08-19T03:54:21;30.00;43.40
35325;DHT22;35135;47.510;19.036;2022-08-19T03:56:49;30.00;43.40
35325;DHT22;35135;47.510;19.036;2022-08-19T03:59:18;30.00;43.40
35325;DHT22;35135;47.510;19.036;2022-08-19T04:01:45;30.00;43.50
35325;DHT22;35135;47.510;19.036;2022-08-19T04:04:12;30.00;43.40
35325;DHT22;35135;47.510;19.036;2022-08-19T04:06:39;30.00;43.40
35325;DHT22;35135;47.510;19.036;2022-08-19T04:09:09;30.00;43.40
35325;DHT22;35135;47.510;19.036;2022-08-19T04:11:38;30.00;43.40
35325;DHT22;35135;47.510;19.036;2022-08-19T04:14:09;30.00;43.40
35325;DHT22;35135;47.510;19.036;2022-08-19T04:16:37;30.00;43.40
35325;DHT22;35135;47.510;19.036;2022-08-19T04:19:04;30.00;43.40
35325;DHT22;35135;47.510;19.036;2022-08-19T04:21:31;30.00;43.40
35325;DHT22;35135;47.510;19.036;2022-08-19T04:23:57;30.00;43.40
35325;DHT22;35135;47.510;19.036;2022-08-19T04:26:25;30.00;43.40
35325;DHT22;35135;47.510;19.036;2022-08-19T04:28:51;30.00;43.40
35325;DHT22;35135;47.510;19.036;2022-08-19T04:31:20;30.00;43.40
35325;DHT22;35135;47.510;19.036;2022-08-19T04:33:47;30.00;43.40
35325;DHT22;35135;47.510;19.036;2022-08-19T04:36:20;30.00;43.40
35325;DHT22;35135;47.510;19.036;2022-08-19T04:38:48;30.00;43.40
35325;DHT22;35135;47.510;19.036;2022-08-19T04:41:14;30.00;43.30
35325;DHT22;35135;47.510;19.036;2022-08-19T04:43:59;30.10;43.40
35325;DHT22;35135;47.510;19.036;2022-08-19T04:46:26;30.10;43.40
35325;DHT22;35135;47.510;19.036;2022-08-19T04:48:55;30.10;43.40
35325;DHT22;35135;47.510;19.036;2022-08-19T04:51:23;30.10;43.40
35325;DHT22;35135;47.510;19.036;2022-08-19T04:53:54;30.10;43.40
35325;DHT22;35135;47.510;19.036;2022-08-19T04:56:21;30.10;43.40
35325;DHT22;35135;47.510;19.036;2022-08-19T04:58:48;30.00;43.40
35325;DHT22;35135;47.510;19.036;2022-08-19T05:01:21;30.10;43.40
35325;DHT22;35135;47.510;19.036;2022-08-19T05:03:47;30.10;43.40
35325;DHT22;35135;47.510;19.036;2022-08-19T05:06:13;30.10;43.40
35325;DHT22;35135;47.510;19.036;2022-08-19T05:08:39;30.10;43.40
35325;DHT22;35135;47.510;19.036;2022-08-19T05:11:19;30.10;43.40
35325;DHT22;35135;47.510;19.036;2022-08-19T05:13:46;30.10;43.40
35325;DHT22;35135;47.510;19.036;2022-08-19T05:16:12;30.10;43.50
35325;DHT22;35135;47.510;19.036;2022-08-19T05:18:39;30.10;43.50
35325;DHT22;35135;47.510;19.036;2022-08-19T05:21:24;30.10;43.50
35325;DHT22;35135;47.510;19.036;2022-08-19T05:24:08;30.20;43.60
35325;DHT22;35135;47.510;19.036;2022-08-19T05:26:35;30.20;43.60
35325;DHT22;35135;47.510;19.036;2022-08-19T05:29:01;30.20;43.60
35325;DHT22;35135;47.510;19.036;2022-08-19T05:31:27;30.20;43.50
35325;DHT22;35135;47.510;19.036;2022-08-19T05:33:53;30.20;43.50
35325;DHT22;35135;47.510;19.036;2022-08-19T05:36:19;30.20;43.50
35325;DHT22;35135;47.510;19.036;2022-08-19T05:38:47;30.30;43.50
35325;DHT22;35135;47.510;19.036;2022-08-19T05:41:13;30.30;43.50
35325;DHT22;35135;47.510;19.036;2022-08-19T05:43:40;30.30;43.50
35325;DHT22;35135;47.510;19.036;2022-08-19T05:46:06;30.30;43.40
35325;DHT22;35135;47.510;19.036;2022-08-19T05:48:32;30.30;43.40
35325;DHT22;35135;47.510;19.036;2022-08-19T05:51:03;30.40;43.50
35325;DHT22;35135;47.510;19.036;2022-08-19T05:53:30;30.40;43.40
35325;DHT22;35135;47.510;19.036;2022-08-19T05:55:56;30.40;43.40
35325;DHT22;35135;47.510;19.036;2022-08-19T05:58:24;30.40;43.40
35325;DHT22;35135;47.510;19.036;2022-08-19T06:00:51;30.40;43.30
35325;DHT22;35135;47.510;19.036;2022-08-19T06:03:20;30.40;43.30
35325;DHT22;35135;47.510;19.036;2022-08-19T06:05:46;30.40;43.30
35325;DHT22;35135;47.510;19.036;2022-08-19T06:08:14;30.40;43.30
35325;DHT22;35135;47.510;19.036;2022-08-19T06:10:40;30.50;43.30
35325;DHT22;35135;47.510;19.036;2022-08-19T06:13:05;30.50;43.30
35325;DHT22;35135;47.510;19.036;2022-08-19T06:15:31;30.50;43.20
35325;DHT22;35135;47.510;19.036;2022-08-19T06:17:58;30.50;43.20
35325;DHT22;35135;47.510;19.036;2022-08-19T06:20:25;30.50;43.20
35325;DHT22;35135;47.510;19.036;2022-08-19T06:22:52;30.50;43.20
35325;DHT22;35135;47.510;19.036;2022-08-19T06:25:19;30.50;43.20
35325;DHT22;35135;47.510;19.036;2022-08-19T06:27:45;30.60;43.20
35325;DHT22;35135;47.510;19.036;2022-08-19T06:30:11;30.60;43.20
35325;DHT22;35135;47.510;19.036;2022-08-19T06:32:38;30.60;43.20
35325;DHT22;35135;47.510;19.036;2022-08-19T06:35:05;30.60;43.20
35325;DHT22;35135;47.510;19.036;2022-08-19T06:37:31;30.60;43.20
35325;DHT22;35135;47.510;19.036;2022-08-19T06:39:56;30.60;43.20
35325;DHT22;35135;47.510;19.036;2022-08-19T06:42:22;30.60;43.20
35325;DHT22;35135;47.510;19.036;2022-08-19T06:44:48;30.60;43.20
35325;DHT22;35135;47.510;19.036;2022-08-19T06:47:16;30.70;43.20
35325;DHT22;35135;47.510;19.036;2022-08-19T06:49:43;30.70;43.20
35325;DHT22;35135;47.510;19.036;2022-08-19T06:52:09;30.70;43.20
35325;DHT22;35135;47.510;19.036;2022-08-19T06:54:38;30.70;43.10
35325;DHT22;35135;47.510;19.036;2022-08-19T06:57:06;30.70;43.20
35325;DHT22;35135;47.510;19.036;2022-08-19T06:59:32;30.70;43.10
35325;DHT22;35135;47.510;19.036;2022-08-19T07:02:02;30.70;43.10
35325;DHT22;35135;47.510;19.036;2022-08-19T07:04:31;30.70;43.10
35325;DHT22;35135;47.510;19.036;2022-08-19T07:06:59;30.70;43.10
35325;DHT22;35135;47.510;19.036;2022-08-19T07:09:25;30.70;43.10
35325;DHT22;35135;47.510;19.036;2022-08-19T07:11:51;30.70;43.10
35325;DHT22;35135;47.510;19.036;2022-08-19T07:14:19;30.70;43.00
35325;DHT22;35135;47.510;19.036;2022-08-19T07:16:46;30.70;43.00
35325;DHT22;35135;47.510;19.036;2022-08-19T07:19:12;30.70;43.00
35325;DHT22;35135;47.510;19.036;2022-08-19T07:21:38;30.80;43.10
35325;DHT22;35135;47.510;19.036;2022-08-19T07:24:04;30.80;43.00
35325;DHT22;35135;47.510;19.036;2022-08-19T07:26:33;30.80;43.10
35325;DHT22;35135;47.510;19.036;2022-08-19T07:28:59;30.80;43.10
35325;DHT22;35135;47.510;19.036;2022-08-19T07:31:27;30.80;43.00
35325;DHT22;35135;47.510;19.036;2022-08-19T07:33:54;30.80;43.00
35325;DHT22;35135;47.510;19.036;2022-08-19T07:36:22;30.80;43.00
35325;DHT22;35135;47.510;19.036;2022-08-19T07:38:51;30.80;43.10
35325;DHT22;35135;47.510;19.036;2022-08-19T07:41:21;30.80;43.00
35325;DHT22;35135;47.510;19.036;2022-08-19T07:43:48;30.80;43.00
35325;DHT22;35135;47.510;19.036;2022-08-19T07:46:15;30.80;43.00
35325;DHT22;35135;47.510;19.036;2022-08-19T07:48:42;30.80;42.90
35325;DHT22;35135;47.510;19.036;2022-08-19T07:51:12;30.80;43.00
35325;DHT22;35135;47.510;19.036;2022-08-19T07:53:38;30.80;43.00
35325;DHT22;35135;47.510;19.036;2022-08-19T07:56:05;30.80;43.00
35325;DHT22;35135;47.510;19.036;2022-08-19T07:58:32;30.80;42.90
35325;DHT22;35135;47.510;19.036;2022-08-19T08:00:59;30.80;42.90
35325;DHT22;35135;47.510;19.036;2022-08-19T08:03:26;30.80;42.90
35325;DHT22;35135;47.510;19.036;2022-08-19T08:06:13;30.80;42.90
35325;DHT22;35135;47.510;19.036;2022-08-19T08:08:58;30.80;43.00
35325;DHT22;35135;47.510;19.036;2022-08-19T08:11:45;30.80;42.90
35325;DHT22;35135;47.510;19.036;2022-08-19T08:14:16;30.80;42.90
35325;DHT22;35135;47.510;19.036;2022-08-19T08:16:42;30.80;43.50
35325;DHT22;35135;47.510;19.036;2022-08-19T08:19:11;30.80;42.90
35325;DHT22;35135;47.510;19.036;2022-08-19T08:21:40;30.80;42.90
35325;DHT22;35135;47.510;19.036;2022-08-19T08:24:06;30.80;42.90
35325;DHT22;35135;47.510;19.036;2022-08-19T08:26:43;30.80;42.90
35325;DHT22;35135;47.510;19.036;2022-08-19T08:29:11;30.80;43.00
35325;DHT22;35135;47.510;19.036;2022-08-19T08:31:39;30.80;43.00
35325;DHT22;35135;47.510;19.036;2022-08-19T08:34:07;30.80;43.00
35325;DHT22;35135;47.510;19.036;2022-08-19T08:36:35;30.80;43.00
35325;DHT22;35135;47.510;19.036;2022-08-19T08:39:01;30.80;43.00
35325;DHT22;35135;47.510;19.036;2022-08-19T08:41:32;30.80;43.00
35325;DHT22;35135;47.510;19.036;2022-08-19T08:44:00;30.80;43.00
35325;DHT22;35135;47.510;19.036;2022-08-19T08:49:06;30.80;43.00
35325;DHT22;35135;47.510;19.036;2022-08-19T08:51:46;30.80;43.00
35325;DHT22;35135;47.510;19.036;2022-08-19T08:54:14;30.80;43.00
35325;DHT22;35135;47.510;19.036;2022-08-19T08:56:43;30.80;43.00
35325;DHT22;35135;47.510;19.036;2022-08-19T08:59:14;30.80;43.00
35325;DHT22;35135;47.510;19.036;2022-08-19T09:01:43;30.80;43.00
35325;DHT22;35135;47.510;19.036;2022-08-19T09:04:10;30.80;43.00
35325;DHT22;35135;47.510;19.036;2022-08-19T09:07:20;30.80;43.00
35325;DHT22;35135;47.510;19.036;2022-08-19T09:09:37;30.70;42.90
35325;DHT22;35135;47.510;19.036;2022-08-19T09:12:11;30.80;43.00
35325;DHT22;35135;47.510;19.036;2022-08-19T09:14:48;30.70;42.90
35325;DHT22;35135;47.510;19.036;2022-08-19T09:17:17;30.80;43.00
35325;DHT22;35135;47.510;19.036;2022-08-19T09:19:55;30.70;42.90
35325;DHT22;35135;47.510;19.036;2022-08-19T09:22:22;30.80;43.00
35325;DHT22;35135;47.510;19.036;2022-08-19T09:24:48;30.70;42.90
35325;DHT22;35135;47.510;19.036;2022-08-19T09:27:14;30.70;42.90
35325;DHT22;35135;47.510;19.036;2022-08-19T09:29:40;30.70;42.90
35325;DHT22;35135;47.510;19.036;2022-08-19T09:32:06;30.70;42.90
35325;DHT22;35135;47.510;19.036;2022-08-19T09:34:32;30.70;42.80
35325;DHT22;35135;47.510;19.036;2022-08-19T09:36:58;30.70;42.90
35325;DHT22;35135;47.510;19.036;2022-08-19T09:39:25;30.70;42.90
35325;DHT22;35135;47.510;19.036;2022-08-19T09:41:51;30.70;42.80
35325;DHT22;35135;47.510;19.036;2022-08-19T09:44:18;30.70;42.80
35325;DHT22;35135;47.510;19.036;2022-08-19T09:46:45;30.70;42.80
35325;DHT22;35135;47.510;19.036;2022-08-19T09:49:12;30.70;42.80
35325;DHT22;35135;47.510;19.036;2022-08-19T09:51:37;30.70;42.80
35325;DHT22;35135;47.510;19.036;2022-08-19T09:54:03;30.70;42.80
35325;DHT22;35135;47.510;19.036;2022-08-19T09:56:29;30.70;42.80
35325;DHT22;35135;47.510;19.036;2022-08-19T09:58:57;30.70;42.80
35325;DHT22;35135;47.510;19.036;2022-08-19T10:01:24;30.70;42.80
35325;DHT22;35135;47.510;19.036;2022-08-19T10:03:51;30.70;42.80
35325;DHT22;35135;47.510;19.036;2022-08-19T10:06:18;30.70;42.80
35325;DHT22;35135;47.510;19.036;2022-08-19T10:08:45;30.70;42.80
35325;DHT22;35135;47.510;19.036;2022-08-19T10:11:10;30.70;42.80
35325;DHT22;35135;47.510;19.036;2022-08-19T10:13:36;30.70;42.80
35325;DHT22;35135;47.510;19.036;2022-08-19T10:16:04;30.70;42.80
35325;DHT22;35135;47.510;19.036;2022-08-19T10:18:30;30.70;42.80
35325;DHT22;35135;47.510;19.036;2022-08-19T10:21:04;30.70;42.80
35325;DHT22;35135;47.510;19.036;2022-08-19T10:23:34;30.70;42.80
35325;DHT22;35135;47.510;19.036;2022-08-19T10:26:00;30.70;42.80
35325;DHT22;35135;47.510;19.036;2022-08-19T10:28:26;30.70;42.80
35325;DHT22;35135;47.510;19.036;2022-08-19T10:30:52;30.70;42.80
35325;DHT22;35135;47.510;19.036;2022-08-19T10:33:18;30.70;42.80
35325;DHT22;35135;47.510;19.036;2022-08-19T10:35:44;30.70;42.80
35325;DHT22;35135;47.510;19.036;2022-08-19T10:38:13;30.70;42.80
35325;DHT22;35135;47.510;19.036;2022-08-19T10:40:38;30.70;42.80
35325;DHT22;35135;47.510;19.036;2022-08-19T10:43:04;30.70;42.80
35325;DHT22;35135;47.510;19.036;2022-08-19T10:45:31;30.70;42.80
35325;DHT22;35135;47.510;19.036;2022-08-19T10:47:58;30.70;42.80
35325;DHT22;35135;47.510;19.036;2022-08-19T10:50:23;30.70;42.80
35325;DHT22;35135;47.510;19.036;2022-08-19T10:53:08;30.70;42.80
35325;DHT22;35135;47.510;19.036;2022-08-19T10:55:34;30.70;42.70
35325;DHT22;35135;47.510;19.036;2022-08-19T10:58:19;30.70;42.70
35325;DHT22;35135;47.510;19.036;2022-08-19T11:00:52;30.70;42.80
35325;DHT22;35135;47.510;19.036;2022-08-19T11:03:18;30.70;42.80
35325;DHT22;35135;47.510;19.036;2022-08-19T11:05:44;30.70;42.80
35325;DHT22;35135;47.510;19.036;2022-08-19T11:08:09;30.70;42.70
35325;DHT22;35135;47.510;19.036;2022-08-19T11:10:41;30.70;42.70
35325;DHT22;35135;47.510;19.036;2022-08-19T11:13:07;30.70;42.70
35325;DHT22;35135;47.510;19.036;2022-08-19T11:15:33;30.70;42.70
35325;DHT22;35135;47.510;19.036;2022-08-19T11:17:59;30.70;42.70
35325;DHT22;35135;47.510;19.036;2022-08-19T11:20:25;30.70;42.80
35325;DHT22;35135;47.510;19.036;2022-08-19T11:22:51;30.70;42.70
35325;DHT22;35135;47.510;19.036;2022-08-19T11:25:19;30.70;42.70
35325;DHT22;35135;47.510;19.036;2022-08-19T11:27:44;30.70;42.70
35325;DHT22;35135;47.510;19.036;2022-08-19T11:30:12;30.70;42.70
35325;DHT22;35135;47.510;19.036;2022-08-19T11:32:39;30.70;42.70
35325;DHT22;35135;47.510;19.036;2022-08-19T11:35:05;30.70;42.70
35325;DHT22;35135;47.510;19.036;2022-08-19T11:37:31;30.70;42.70
35325;DHT22;35135;47.510;19.036;2022-08-19T11:39:57;30.70;42.70
35325;DHT22;35135;47.510;19.036;2022-08-19T11:42:22;30.70;42.70
35325;DHT22;35135;47.510;19.036;2022-08-19T11:45:07;30.70;42.70
35325;DHT22;35135;47.510;19.036;2022-08-19T11:47:32;30.70;42.70
35325;DHT22;35135;47.510;19.036;2022-08-19T11:49:58;30.70;42.60
35325;DHT22;35135;47.510;19.036;2022-08-19T11:52:24;30.70;42.70
35325;DHT22;35135;47.510;19.036;2022-08-19T11:54:50;30.70;42.60
35325;DHT22;35135;47.510;19.036;2022-08-19T11:57:17;30.70;42.70
35325;DHT22;35135;47.510;19.036;2022-08-19T11:59:47;30.70;42.60
35325;DHT22;35135;47.510;19.036;2022-08-19T12:02:13;30.70;42.70
35325;DHT22;35135;47.510;19.036;2022-08-19T12:04:40;30.70;42.70
35325;DHT22;35135;47.510;19.036;2022-08-19T12:07:07;30.70;42.70
35325;DHT22;35135;47.510;19.036;2022-08-19T12:09:33;30.70;42.60
35325;DHT22;35135;47.510;19.036;2022-08-19T12:12:00;30.70;42.60
35325;DHT22;35135;47.510;19.036;2022-08-19T12:14:27;30.70;42.60
35325;DHT22;35135;47.510;19.036;2022-08-19T12:16:56;30.70;42.60
35325;DHT22;35135;47.510;19.036;2022-08-19T12:19:23;30.70;42.60
35325;DHT22;35135;47.510;19.036;2022-08-19T12:21:50;30.70;42.60
35325;DHT22;35135;47.510;19.036;2022-08-19T12:24:22;30.70;42.60
35325;DHT22;35135;47.510;19.036;2022-08-19T12:26:50;30.70;42.60
35325;DHT22;35135;47.510;19.036;2022-08-19T12:29:17;30.70;42.60
35325;DHT22;35135;47.510;19.036;2022-08-19T12:31:44;30.70;42.60
35325;DHT22;35135;47.510;19.036;2022-08-19T12:34:10;30.70;42.60
35325;DHT22;35135;47.510;19.036;2022-08-19T12:36:37;30.70;42.60
35325;DHT22;35135;47.510;19.036;2022-08-19T12:39:03;30.70;42.60
35325;DHT22;35135;47.510;19.036;2022-08-19T12:41:29;30.70;42.50
35325;DHT22;35135;47.510;19.036;2022-08-19T12:43:55;30.70;42.50
35325;DHT22;35135;47.510;19.036;2022-08-19T12:46:20;30.70;42.50
35325;DHT22;35135;47.510;19.036;2022-08-19T12:48:46;30.70;42.50
35325;DHT22;35135;47.510;19.036;2022-08-19T12:51:15;30.70;42.50
35325;DHT22;35135;47.510;19.036;2022-08-19T12:53:42;30.70;42.50
35325;DHT22;35135;47.510;19.036;2022-08-19T12:56:09;30.70;42.50
35325;DHT22;35135;47.510;19.036;2022-08-19T12:58:36;30.80;42.60
35325;DHT22;35135;47.510;19.036;2022-08-19T13:01:09;30.70;42.50
35325;DHT22;35135;47.510;19.036;2022-08-19T13:03:35;30.70;42.50
35325;DHT22;35135;47.510;19.036;2022-08-19T13:06:02;30.80;42.50
35325;DHT22;35135;47.510;19.036;2022-08-19T13:08:27;30.70;42.50
35325;DHT22;35135;47.510;19.036;2022-08-19T13:10:53;30.70;42.40
35325;DHT22;35135;47.510;19.036;2022-08-19T13:13:19;30.80;42.50
35325;DHT22;35135;47.510;19.036;2022-08-19T13:15:46;30.70;42.50
35325;DHT22;35135;47.510;19.036;2022-08-19T13:18:13;30.80;42.50
35325;DHT22;35135;47.510;19.036;2022-08-19T13:20:40;30.70;42.40
35325;DHT22;35135;47.510;19.036;2022-08-19T13:23:07;30.80;42.50
35325;DHT22;35135;47.510;19.036;2022-08-19T13:25:33;30.80;42.50
35325;DHT22;35135;47.510;19.036;2022-08-19T13:28:02;30.70;42.40
35325;DHT22;35135;47.510;19.036;2022-08-19T13:30:29;30.80;42.40
35325;DHT22;35135;47.510;19.036;2022-08-19T13:33:13;30.70;42.40
35325;DHT22;35135;47.510;19.036;2022-08-19T13:35:45;30.80;42.50
35325;DHT22;35135;47.510;19.036;2022-08-19T13:38:13;30.80;42.40
35325;DHT22;35135;47.510;19.036;2022-08-19T13:40:40;30.80;42.40
35325;DHT22;35135;47.510;19.036;2022-08-19T13:43:06;30.80;42.40
35325;DHT22;35135;47.510;19.036;2022-08-19T13:45:33;30.80;42.40
35325;DHT22;35135;47.510;19.036;2022-08-19T13:48:00;30.70;42.30
35325;DHT22;35135;47.510;19.036;2022-08-19T13:50:26;30.80;42.40
35325;DHT22;35135;47.510;19.036;2022-08-19T13:52:53;30.80;42.40
35325;DHT22;35135;47.510;19.036;2022-08-19T13:55:20;30.80;42.40
35325;DHT22;35135;47.510;19.036;2022-08-19T13:57:49;30.80;42.40
35325;DHT22;35135;47.510;19.036;2022-08-19T14:00:16;30.80;42.30
35325;DHT22;35135;47.510;19.036;2022-08-19T14:02:46;30.80;42.40
35325;DHT22;35135;47.510;19.036;2022-08-19T14:05:14;30.80;42.30
35325;DHT22;35135;47.510;19.036;2022-08-19T14:07:40;30.80;42.40
35325;DHT22;35135;47.510;19.036;2022-08-19T14:10:07;30.80;42.30
35325;DHT22;35135;47.510;19.036;2022-08-19T14:12:33;30.80;42.30
35325;DHT22;35135;47.510;19.036;2022-08-19T14:14:59;30.80;42.40
35325;DHT22;35135;47.510;19.036;2022-08-19T14:17:26;30.80;42.30
35325;DHT22;35135;47.510;19.036;2022-08-19T14:19:58;30.80;42.40
35325;DHT22;35135;47.510;19.036;2022-08-19T14:22:24;30.80;42.40
35325;DHT22;35135;47.510;19.036;2022-08-19T14:24:50;30.80;42.40
35325;DHT22;35135;47.510;19.036;2022-08-19T14:27:16;30.80;42.40
35325;DHT22;35135;47.510;19.036;2022-08-19T14:29:42;30.80;42.40
35325;DHT22;35135;47.510;19.036;2022-08-19T14:32:09;30.80;42.40
35325;DHT22;35135;47.510;19.036;2022-08-19T14:34:35;30.80;42.40
35325;DHT22;35135;47.510;19.036;2022-08-19T14:37:02;30.80;42.40
35325;DHT22;35135;47.510;19.036;2022-08-19T14:39:28;30.80;42.40
35325;DHT22;35135;47.510;19.036;2022-08-19T14:41:54;30.80;42.40
35325;DHT22;35135;47.510;19.036;2022-08-19T14:44:20;30.80;42.40
35325;DHT22;35135;47.510;19.036;2022-08-19T14:46:47;30.80;42.40
35325;DHT22;35135;47.510;19.036;2022-08-19T14:49:14;30.80;42.50
35325;DHT22;35135;47.510;19.036;2022-08-19T14:51:41;30.80;42.50
35325;DHT22;35135;47.510;19.036;2022-08-19T14:54:07;30.80;42.50
35325;DHT22;35135;47.510;19.036;2022-08-19T14:56:34;30.80;42.50
35325;DHT22;35135;47.510;19.036;2022-08-19T14:59:00;30.80;42.50
35325;DHT22;35135;47.510;19.036;2022-08-19T15:01:28;30.80;42.50
35325;DHT22;35135;47.510;19.036;2022-08-19T15:03:55;30.90;42.60
35325;DHT22;35135;47.510;19.036;2022-08-19T15:06:22;30.80;42.50
35325;DHT22;35135;47.510;19.036;2022-08-19T15:08:48;30.80;42.50
35325;DHT22;35135;47.510;19.036;2022-08-19T15:11:17;30.80;42.50
35325;DHT22;35135;47.510;19.036;2022-08-19T15:13:45;30.80;42.50
35325;DHT22;35135;47.510;19.036;2022-08-19T15:16:14;30.80;42.40
35325;DHT22;35135;47.510;19.036;2022-08-19T15:18:43;30.80;42.30
35325;DHT22;35135;47.510;19.036;2022-08-19T15:21:10;30.80;42.30
35325;DHT22;35135;47.510;19.036;2022-08-19T15:23:38;30.80;42.30